Ferndale, WA

5:51 PM PDT on April 27, 2015 (GMT -0700)
Ferndale | | Change Station
CLOSE
Current Station
Personal Weather Station
Location: Ferndale, WA
Elevation: 197 ft
Nearby Weather Stations

Elev 197 ft 48.86 °N, 122.60 °W | Updated 47 seconds ago

Partly Cloudy
Partly Cloudy
67.6 °F
Feels Like 67.6 °F
N
3.0
Wind Variable Wind from West
Gusts 3.0 mph

Today
High -- | Low -- °F
--% Chance of Precip.
Yesterday
High -- | Low -- °F
Precip. -- in
5:57 AM 8:19 PM
Waxing Gibbous, 69% visible
Pressure 30.06 in
Visibility 10.0 miles
Clouds Clear
Dew Point 55 °F
Humidity 64%
Rainfall 0.20 in
Snow Depth Not available.
UV 3 out of 12
Pollen 8.50 out of 12
Air Quality Not available.
Flu Activity Regional
METAR KBLI 272353Z 36008G15KT 10SM CLR 19/12 A3006

More Conditions Fewer Conditions

Pressure 30.06 in
Visibility 10.0 miles
Clouds Clear
Dew Point 55 °F
Humidity 64%
Rainfall 0.20 in
Snow Depth Not available.
UV 3 out of 12
Pollen 8.50 out of 12
Air Quality Not available.
Flu Activity Regional
METAR KBLI 272353Z 36008G15KT 10SM CLR 19/12 A3006

More Conditions Fewer Conditions

10-Day Weather Forecast

Almanac

Astronomy

Apr. 27, 2015 Rise Set
Actual Time
Civil Twilight
Nautical Twilight
Astronomical Twilight
Moon
Length of Visible Light
Length of Day
Tomorrow will be .
, % of the Moon is Illuminated

Today's Extremes

State Highs State Lows

Community

WunderPhotos

Upload Photos

1,817,497 photos uploaded!

WunderBlogs® & News

Nearby

Air Quality

  Air Quality AQ Index Pollutant
Not available.

Snow Depth

Station Depth Elevation

Earthquake Activity

City Distance Mag. Time & Date
Minimum magnitude displayed is 2.5.

Coastal Water Temperatures

Place Temperature

Stations

Nearby Weather Stations

Station Location Temp. Windchill Dew Point Humidity Wind Precip. Elev Updated Type